BRX1282 EKBI-EKCH
Flight info
| Callsign | BRX1282 |
|---|---|
| Flight time | 0h 36m |
| Altitude | 19000 |
| Route | ABINO6B ABINO T56 TESPI TESPI4A |
| Aircraft | AT76/M-SDFGIRY/S |
Departure
| Time | 2026-05-05 12:19 |
|---|---|
| Airport | Billund Airport (EKBI) |
Arrival
| Time | 2026-05-05 12:56 |
|---|---|
| Airport | Copenhagen Kastrup Airport (EKCH) |
| Time | Latitude | Longitude | Altitude | Speed | Heading |
|---|---|---|---|---|---|
| 2026-05-05 12:09 | 55.74523 | 9.14413 | 213 ft | 0 kts | 357° |
| 2026-05-05 12:14 | 55.74501 | 9.14415 | 213 ft | 4 kts | 359° |
| 2026-05-05 12:14 | 55.74474 | 9.14414 | 217 ft | 4 kts | 5° |
| 2026-05-05 12:15 | 55.74448 | 9.14405 | 213 ft | 4 kts | 32° |
| 2026-05-05 12:15 | 55.74437 | 9.14382 | 213 ft | 0 kts | 87° |
| 2026-05-05 12:17 | 55.74437 | 9.14383 | 213 ft | 1 kts | 87° |
| 2026-05-05 12:17 | 55.74402 | 9.14463 | 216 ft | 14 kts | 162° |
| 2026-05-05 12:17 | 55.74275 | 9.14452 | 213 ft | 21 kts | 216° |
| 2026-05-05 12:17 | 55.74251 | 9.14175 | 217 ft | 26 kts | 265° |
| 2026-05-05 12:18 | 55.74238 | 9.13833 | 213 ft | 30 kts | 269° |
| 2026-05-05 12:18 | 55.74225 | 9.13468 | 213 ft | 27 kts | 258° |
| 2026-05-05 12:18 | 55.74112 | 9.13267 | 213 ft | 21 kts | 193° |
| 2026-05-05 12:18 | 55.73989 | 9.13304 | 220 ft | 18 kts | 122° |
| 2026-05-05 12:19 | 55.73990 | 9.13719 | 213 ft | 64 kts | 88° |
| 2026-05-05 12:19 | 55.74026 | 9.14938 | 231 ft | 128 kts | 86° |
| 2026-05-05 12:19 | 55.74099 | 9.16690 | 520 ft | 157 kts | 86° |
| 2026-05-05 12:19 | 55.74196 | 9.18751 | 909 ft | 178 kts | 83° |
| 2026-05-05 12:20 | 55.74350 | 9.20928 | 1536 ft | 175 kts | 69° |
| 2026-05-05 12:20 | 55.74976 | 9.22740 | 1965 ft | 174 kts | 52° |
| 2026-05-05 12:20 | 55.75651 | 9.24525 | 2504 ft | 175 kts | 56° |
| 2026-05-05 12:20 | 55.76263 | 9.26408 | 3051 ft | 177 kts | 59° |
| 2026-05-05 12:21 | 55.76850 | 9.28337 | 3617 ft | 177 kts | 59° |
| 2026-05-05 12:21 | 55.77418 | 9.30293 | 4139 ft | 179 kts | 60° |
| 2026-05-05 12:21 | 55.77977 | 9.32276 | 4665 ft | 181 kts | 62° |
| 2026-05-05 12:21 | 55.78531 | 9.34278 | 5199 ft | 181 kts | 61° |
| 2026-05-05 12:22 | 55.79096 | 9.36253 | 5708 ft | 183 kts | 61° |
| 2026-05-05 12:22 | 55.79672 | 9.38284 | 6203 ft | 184 kts | 61° |
| 2026-05-05 12:22 | 55.80258 | 9.40328 | 6657 ft | 187 kts | 61° |
| 2026-05-05 12:22 | 55.80861 | 9.42407 | 7098 ft | 192 kts | 60° |
| 2026-05-05 12:23 | 55.81476 | 9.44543 | 7519 ft | 196 kts | 60° |
| 2026-05-05 12:23 | 55.82092 | 9.46739 | 7945 ft | 201 kts | 62° |
| 2026-05-05 12:23 | 55.82709 | 9.48998 | 8369 ft | 205 kts | 61° |
| 2026-05-05 12:23 | 55.83344 | 9.51292 | 8782 ft | 209 kts | 61° |
| 2026-05-05 12:24 | 55.83998 | 9.53639 | 9218 ft | 213 kts | 60° |
| 2026-05-05 12:24 | 55.84670 | 9.56024 | 9634 ft | 218 kts | 60° |
| 2026-05-05 12:24 | 55.85356 | 9.58451 | 10019 ft | 221 kts | 60° |
| 2026-05-05 12:24 | 55.86049 | 9.60910 | 10414 ft | 223 kts | 60° |
| 2026-05-05 12:25 | 55.86751 | 9.63400 | 10782 ft | 226 kts | 61° |
| 2026-05-05 12:25 | 55.87459 | 9.65919 | 11164 ft | 229 kts | 61° |
| 2026-05-05 12:25 | 55.88174 | 9.68466 | 11545 ft | 231 kts | 61° |
| 2026-05-05 12:25 | 55.88894 | 9.71034 | 11924 ft | 233 kts | 61° |
| 2026-05-05 12:26 | 55.89620 | 9.73626 | 12315 ft | 235 kts | 61° |
| 2026-05-05 12:26 | 55.90346 | 9.76209 | 12691 ft | 237 kts | 61° |
| 2026-05-05 12:26 | 55.91085 | 9.78850 | 13069 ft | 239 kts | 62° |
| 2026-05-05 12:26 | 55.91829 | 9.81516 | 13465 ft | 242 kts | 61° |
| 2026-05-05 12:27 | 55.92584 | 9.84216 | 13810 ft | 245 kts | 62° |
| 2026-05-05 12:27 | 55.93343 | 9.86935 | 14144 ft | 246 kts | 62° |
| 2026-05-05 12:27 | 55.94106 | 9.89681 | 14461 ft | 247 kts | 61° |
| 2026-05-05 12:27 | 55.94873 | 9.92436 | 14807 ft | 249 kts | 62° |
| 2026-05-05 12:28 | 55.95643 | 9.95214 | 15129 ft | 250 kts | 62° |
| 2026-05-05 12:28 | 55.96392 | 9.98018 | 15433 ft | 251 kts | 70° |
| 2026-05-05 12:28 | 55.96580 | 10.01107 | 15719 ft | 252 kts | 95° |
| 2026-05-05 12:28 | 55.96347 | 10.04210 | 16034 ft | 252 kts | 106° |
| 2026-05-05 12:29 | 55.95926 | 10.07246 | 16358 ft | 252 kts | 109° |
| 2026-05-05 12:29 | 55.95466 | 10.10265 | 16670 ft | 253 kts | 109° |
| 2026-05-05 12:29 | 55.95014 | 10.13318 | 16980 ft | 255 kts | 108° |
| 2026-05-05 12:29 | 55.94596 | 10.16404 | 17284 ft | 257 kts | 107° |
| 2026-05-05 12:30 | 55.94194 | 10.19518 | 17586 ft | 258 kts | 107° |
| 2026-05-05 12:30 | 55.93787 | 10.22654 | 17885 ft | 260 kts | 107° |
| 2026-05-05 12:30 | 55.93377 | 10.25793 | 18185 ft | 260 kts | 107° |
| 2026-05-05 12:30 | 55.92972 | 10.28899 | 18438 ft | 261 kts | 107° |
| 2026-05-05 12:31 | 55.92557 | 10.32065 | 18688 ft | 262 kts | 107° |
| 2026-05-05 12:31 | 55.92138 | 10.35250 | 18867 ft | 267 kts | 107° |
| 2026-05-05 12:31 | 55.91710 | 10.38515 | 18946 ft | 275 kts | 107° |
| 2026-05-05 12:31 | 55.91266 | 10.41885 | 18979 ft | 283 kts | 107° |
| 2026-05-05 12:32 | 55.90811 | 10.45339 | 19000 ft | 291 kts | 107° |
| 2026-05-05 12:32 | 55.90345 | 10.48874 | 19001 ft | 297 kts | 107° |
| 2026-05-05 12:32 | 55.89863 | 10.52494 | 19010 ft | 303 kts | 106° |
| 2026-05-05 12:32 | 55.89418 | 10.56048 | 19013 ft | 307 kts | 105° |
| 2026-05-05 12:33 | 55.88980 | 10.59801 | 19010 ft | 310 kts | 105° |
| 2026-05-05 12:33 | 55.88530 | 10.63572 | 19011 ft | 313 kts | 105° |
| 2026-05-05 12:33 | 55.88072 | 10.67331 | 19012 ft | 315 kts | 105° |
| 2026-05-05 12:33 | 55.87604 | 10.71151 | 19016 ft | 317 kts | 105° |
| 2026-05-05 12:34 | 55.87138 | 10.74977 | 19017 ft | 318 kts | 105° |
| 2026-05-05 12:34 | 55.86669 | 10.78822 | 19017 ft | 318 kts | 105° |
| 2026-05-05 12:34 | 55.86197 | 10.82673 | 19014 ft | 319 kts | 105° |
| 2026-05-05 12:34 | 55.85818 | 10.85745 | 19017 ft | 319 kts | 105° |
| 2026-05-05 12:36 | 55.85816 | 10.85761 | 19017 ft | 319 kts | 105° |
| 2026-05-05 12:36 | 55.85335 | 10.89647 | 19014 ft | 319 kts | 105° |
| 2026-05-05 12:36 | 55.84855 | 10.93421 | 19015 ft | 306 kts | 107° |
| 2026-05-05 12:37 | 55.84368 | 10.97128 | 19012 ft | 309 kts | 107° |
| 2026-05-05 12:37 | 55.83844 | 11.00846 | 19017 ft | 311 kts | 108° |
| 2026-05-05 12:37 | 55.83294 | 11.04525 | 19017 ft | 313 kts | 108° |
| 2026-05-05 12:37 | 55.82739 | 11.08277 | 19016 ft | 315 kts | 108° |
| 2026-05-05 12:38 | 55.82188 | 11.12024 | 19019 ft | 316 kts | 108° |
| 2026-05-05 12:38 | 55.81626 | 11.15812 | 19019 ft | 317 kts | 108° |
| 2026-05-05 12:38 | 55.81063 | 11.19609 | 19019 ft | 318 kts | 108° |
| 2026-05-05 12:38 | 55.80497 | 11.23407 | 19016 ft | 318 kts | 108° |
| 2026-05-05 12:39 | 55.79929 | 11.27221 | 19017 ft | 319 kts | 108° |
| 2026-05-05 12:39 | 55.79368 | 11.30979 | 19011 ft | 319 kts | 108° |
| 2026-05-05 12:39 | 55.78790 | 11.34839 | 19014 ft | 319 kts | 108° |
| 2026-05-05 12:39 | 55.78237 | 11.38519 | 19014 ft | 303 kts | 109° |
| 2026-05-05 12:40 | 55.77703 | 11.42008 | 19008 ft | 287 kts | 109° |
| 2026-05-05 12:40 | 55.77193 | 11.45387 | 19004 ft | 280 kts | 106° |
| 2026-05-05 12:40 | 55.76897 | 11.48774 | 19012 ft | 278 kts | 99° |
| 2026-05-05 12:40 | 55.76703 | 11.52215 | 19018 ft | 282 kts | 98° |
| 2026-05-05 12:41 | 55.76492 | 11.55697 | 19018 ft | 285 kts | 99° |
| 2026-05-05 12:41 | 55.76224 | 11.59263 | 18664 ft | 300 kts | 101° |
| 2026-05-05 12:41 | 55.75899 | 11.63052 | 17742 ft | 320 kts | 102° |
| 2026-05-05 12:41 | 55.75544 | 11.67053 | 16733 ft | 335 kts | 101° |
| 2026-05-05 12:42 | 55.75209 | 11.71153 | 15810 ft | 330 kts | 100° |
| 2026-05-05 12:42 | 55.74889 | 11.75185 | 14622 ft | 335 kts | 100° |
| 2026-05-05 12:42 | 55.74570 | 11.79197 | 14351 ft | 320 kts | 100° |
| 2026-05-05 12:42 | 55.74259 | 11.83032 | 14017 ft | 311 kts | 101° |
| 2026-05-05 12:43 | 55.73946 | 11.86809 | 13536 ft | 308 kts | 101° |
| 2026-05-05 12:43 | 55.73647 | 11.90485 | 13202 ft | 300 kts | 100° |
| 2026-05-05 12:43 | 55.73448 | 11.92919 | 13116 ft | 291 kts | 100° |
| 2026-05-05 12:43 | 55.73165 | 11.96389 | 13053 ft | 278 kts | 100° |
| 2026-05-05 12:44 | 55.72890 | 11.99719 | 13018 ft | 268 kts | 101° |
| 2026-05-05 12:44 | 55.72551 | 12.03962 | 12999 ft | 257 kts | 100° |
| 2026-05-05 12:44 | 55.72385 | 12.06063 | 12996 ft | 252 kts | 100° |
| 2026-05-05 12:44 | 55.72063 | 12.10083 | 12992 ft | 245 kts | 100° |
| 2026-05-05 12:45 | 55.71903 | 12.12088 | 12994 ft | 242 kts | 101° |
| 2026-05-05 12:45 | 55.71660 | 12.15019 | 12941 ft | 241 kts | 101° |
| 2026-05-05 12:45 | 55.71326 | 12.18973 | 12679 ft | 248 kts | 101° |
| 2026-05-05 12:45 | 55.71153 | 12.20987 | 12344 ft | 252 kts | 102° |
| 2026-05-05 12:46 | 55.70527 | 12.23861 | 11805 ft | 250 kts | 130° |
| 2026-05-05 12:46 | 55.69393 | 12.26224 | 11276 ft | 253 kts | 141° |
| 2026-05-05 12:46 | 55.68066 | 12.28297 | 10737 ft | 256 kts | 146° |
| 2026-05-05 12:46 | 55.66665 | 12.30290 | 10221 ft | 260 kts | 146° |
| 2026-05-05 12:47 | 55.65247 | 12.32300 | 9705 ft | 262 kts | 145° |
| 2026-05-05 12:47 | 55.63834 | 12.34371 | 9134 ft | 262 kts | 144° |
| 2026-05-05 12:47 | 55.62264 | 12.35782 | 8572 ft | 251 kts | 173° |
| 2026-05-05 12:47 | 55.60544 | 12.35994 | 8039 ft | 248 kts | 182° |
| 2026-05-05 12:48 | 55.58814 | 12.36011 | 7503 ft | 248 kts | 183° |
| 2026-05-05 12:48 | 55.57132 | 12.35737 | 6972 ft | 239 kts | 199° |
| 2026-05-05 12:48 | 55.55569 | 12.34776 | 6454 ft | 237 kts | 203° |
| 2026-05-05 12:48 | 55.54019 | 12.33726 | 5918 ft | 240 kts | 203° |
| 2026-05-05 12:49 | 55.52482 | 12.32630 | 5376 ft | 242 kts | 204° |
| 2026-05-05 12:49 | 55.50909 | 12.31457 | 4825 ft | 243 kts | 204° |
| 2026-05-05 12:49 | 55.49365 | 12.30327 | 4377 ft | 238 kts | 199° |
| 2026-05-05 12:49 | 55.47773 | 12.30314 | 4172 ft | 227 kts | 161° |
| 2026-05-05 12:50 | 55.46504 | 12.31763 | 4088 ft | 212 kts | 138° |
| 2026-05-05 12:50 | 55.45428 | 12.33458 | 4041 ft | 203 kts | 136° |
| 2026-05-05 12:50 | 55.44652 | 12.35345 | 4021 ft | 183 kts | 103° |
| 2026-05-05 12:50 | 55.44595 | 12.37465 | 3935 ft | 171 kts | 70° |
| 2026-05-05 12:51 | 55.45300 | 12.39075 | 3742 ft | 170 kts | 37° |
| 2026-05-05 12:51 | 55.46251 | 12.40445 | 3502 ft | 182 kts | 36° |
| 2026-05-05 12:51 | 55.47257 | 12.41869 | 3253 ft | 187 kts | 38° |
| 2026-05-05 12:51 | 55.48219 | 12.43381 | 2987 ft | 183 kts | 39° |
| 2026-05-05 12:52 | 55.49157 | 12.44861 | 2730 ft | 180 kts | 38° |
| 2026-05-05 12:52 | 55.50097 | 12.46296 | 2484 ft | 178 kts | 38° |
| 2026-05-05 12:52 | 55.51026 | 12.47717 | 2229 ft | 177 kts | 38° |
| 2026-05-05 12:52 | 55.51948 | 12.49128 | 1971 ft | 174 kts | 39° |
| 2026-05-05 12:53 | 55.52853 | 12.50541 | 1742 ft | 173 kts | 39° |
| 2026-05-05 12:53 | 55.53722 | 12.51897 | 1503 ft | 158 kts | 39° |
| 2026-05-05 12:53 | 55.54526 | 12.53133 | 1292 ft | 148 kts | 38° |
| 2026-05-05 12:53 | 55.55251 | 12.54242 | 1094 ft | 128 kts | 38° |
| 2026-05-05 12:54 | 55.56458 | 12.56094 | 738 ft | 112 kts | 39° |
| 2026-05-05 12:54 | 55.57038 | 12.57024 | 648 ft | 112 kts | 39° |
| 2026-05-05 12:54 | 55.57624 | 12.57919 | 533 ft | 111 kts | 38° |
| 2026-05-05 12:55 | 55.58207 | 12.58791 | 384 ft | 109 kts | 38° |
| 2026-05-05 12:55 | 55.58776 | 12.59665 | 180 ft | 107 kts | 39° |
| 2026-05-05 12:55 | 55.59332 | 12.60520 | 56 ft | 105 kts | 39° |
| 2026-05-05 12:55 | 55.59869 | 12.61353 | 22 ft | 95 kts | 40° |
| 2026-05-05 12:56 | 55.60299 | 12.62011 | 20 ft | 71 kts | 42° |
| 2026-05-05 12:56 | 55.60584 | 12.62325 | 22 ft | 29 kts | 14° |
| 2026-05-05 12:56 | 55.60764 | 12.62398 | 21 ft | 26 kts | 17° |
| 2026-05-05 12:56 | 55.60890 | 12.62552 | 20 ft | 26 kts | 41° |
| 2026-05-05 12:57 | 55.61063 | 12.62821 | 20 ft | 36 kts | 43° |
| 2026-05-05 12:57 | 55.61211 | 12.63048 | 21 ft | 24 kts | 41° |
| 2026-05-05 12:57 | 55.61345 | 12.63253 | 21 ft | 27 kts | 44° |
| 2026-05-05 12:57 | 55.61488 | 12.63476 | 20 ft | 28 kts | 42° |
| 2026-05-05 12:58 | 55.61639 | 12.63710 | 20 ft | 29 kts | 41° |
| 2026-05-05 12:58 | 55.61781 | 12.63930 | 21 ft | 22 kts | 43° |
| 2026-05-05 12:58 | 55.61909 | 12.64102 | 20 ft | 24 kts | 29° |
| 2026-05-05 12:58 | 55.62066 | 12.64229 | 20 ft | 26 kts | 25° |
| 2026-05-05 12:59 | 55.62226 | 12.64357 | 18 ft | 20 kts | 9° |
| 2026-05-05 12:59 | 55.62321 | 12.64177 | 17 ft | 23 kts | 302° |
| 2026-05-05 12:59 | 55.62417 | 12.63920 | 18 ft | 27 kts | 305° |
| 2026-05-05 13:00 | 55.62673 | 12.63632 | 20 ft | 23 kts | 272° |
| 2026-05-05 13:00 | 55.62728 | 12.63337 | 20 ft | 27 kts | 304° |
| 2026-05-05 13:01 | 55.62811 | 12.63233 | 20 ft | 7 kts | 8° |
| 2026-05-05 13:01 | 55.62825 | 12.63235 | 20 ft | 0 kts | 7° |
| 2026-05-05 13:01 | 55.62834 | 12.63236 | 20 ft | 0 kts | 6° |